Time;durP1;ratioP1;P1;durP2;ratioP2;P2;SDS_P1;SDS_P2;PMS_P1;PMS_P2;Temp;Humidity;BMP_temperature;BMP_pressure;BME280_temperature;BME280_humidity;BME280_pressure;Samples;Min_cycle;Max_cycle;Signal;HPM_P1;HPM_P2
2021/10/22 00:01:14;;;;;;;15.78;3.10;;;;;;;8.92;57.74;97950.98;2216423;80;21557;-66
2021/10/22 00:04:14;;;;;;;14.63;2.90;;;;;;;8.95;57.86;97970.83;2252695;79;21621;-67
2021/10/22 00:07:16;;;;;;;13.45;3.08;;;;;;;8.91;57.59;97972.01;2218659;80;21004;-67
2021/10/22 00:10:16;;;;;;;12.95;2.75;;;;;;;8.95;57.76;97982.16;2250406;79;20992;-67
2021/10/22 00:13:17;;;;;;;11.60;2.65;;;;;;;8.96;57.84;97973.34;2214688;80;21467;-67
2021/10/22 00:16:17;;;;;;;11.43;2.77;;;;;;;8.97;57.81;97992.51;2243193;79;21479;-67
2021/10/22 00:19:19;;;;;;;14.68;3.20;;;;;;;9.04;57.67;97970.67;2261174;79;21083;-66
2021/10/22 00:22:19;;;;;;;14.68;3.12;;;;;;;9.10;57.36;98001.67;2207739;79;21024;-67
2021/10/22 00:25:20;;;;;;;11.75;2.52;;;;;;;9.16;57.53;97988.16;2252743;79;20978;-66
2021/10/22 00:28:20;;;;;;;13.95;2.58;;;;;;;9.22;57.12;98002.60;2216313;80;21444;-67
2021/10/22 00:31:20;;;;;;;11.45;2.02;;;;;;;9.29;56.90;97996.83;2238472;79;21017;-66
2021/10/22 00:34:21;;;;;;;14.40;2.52;;;;;;;9.33;56.87;97969.51;2215861;80;20996;-67
2021/10/22 00:37:21;;;;;;;13.95;2.90;;;;;;;9.36;56.65;97963.23;2250586;79;21152;-66
2021/10/22 00:40:22;;;;;;;15.30;3.00;;;;;;;9.41;56.65;97975.54;2217068;80;20976;-67
2021/10/22 00:43:23;;;;;;;15.28;3.45;;;;;;;9.43;56.48;97978.05;2249386;79;20973;-67
2021/10/22 00:46:27;;;;;;;10.72;2.45;;;;;;;9.44;56.65;97988.41;2216926;80;21541;-67
2021/10/22 00:49:26;;;;;;;15.18;2.67;;;;;;;9.41;56.63;97999.09;2221657;79;21032;-66
2021/10/22 00:52:27;;;;;;;10.30;2.52;;;;;;;9.43;56.79;98002.91;2253458;78;21012;-66
2021/10/22 00:55:29;;;;;;;11.48;2.27;;;;;;;9.38;56.85;98018.94;2213630;80;21145;-66
2021/10/22 00:58:29;;;;;;;11.73;2.47;;;;;;;9.33;56.93;98027.08;2259169;79;21047;-67
2021/10/22 01:01:30;;;;;;;12.15;2.90;;;;;;;9.35;56.84;98029.59;2216251;80;20984;-67
2021/10/22 01:04:30;;;;;;;14.10;2.33;;;;;;;9.34;57.24;98052.32;2261336;79;20948;-66
2021/10/22 01:07:31;;;;;;;8.73;2.17;;;;;;;9.31;57.24;98047.30;2218254;80;20981;-67
2021/10/22 01:10:31;;;;;;;12.55;2.30;;;;;;;9.28;57.64;98035.73;2254375;79;21007;-66
2021/10/22 01:13:32;;;;;;;11.38;2.80;;;;;;;9.28;57.66;98038.81;2216562;80;20977;-67
2021/10/22 01:16:32;;;;;;;15.70;2.42;;;;;;;9.25;58.06;98056.03;2259026;79;21522;-67
2021/10/22 01:19:33;;;;;;;7.95;2.12;;;;;;;9.26;58.20;98061.16;2214325;80;21015;-67
2021/10/22 01:22:33;;;;;;;8.25;1.60;;;;;;;9.25;58.73;98071.73;2254204;79;21031;-67
2021/10/22 01:25:34;;;;;;;7.05;1.52;;;;;;;9.30;59.04;98119.37;2218451;80;21039;-67
2021/10/22 01:28:34;;;;;;;8.95;1.92;;;;;;;9.43;58.82;98091.42;2254432;79;21012;-67
2021/10/22 01:31:35;;;;;;;6.97;1.10;;;;;;;9.52;58.99;98079.48;2217216;80;21056;-66
2021/10/22 01:34:35;;;;;;;6.53;1.05;;;;;;;9.53;59.26;98088.54;2254334;79;21004;-67
2021/10/22 01:37:36;;;;;;;6.28;1.40;;;;;;;9.48;59.50;98083.25;2254707;79;21495;-67
2021/10/22 01:40:37;;;;;;;8.00;1.52;;;;;;;9.45;60.08;98137.12;2215431;80;21503;-67
2021/10/22 01:43:40;;;;;;;9.63;1.55;;;;;;;9.29;60.98;98160.39;2242526;79;20985;-67
2021/10/22 01:46:40;;;;;;;5.42;1.00;;;;;;;9.10;61.17;98122.01;2188038;80;21496;-67
2021/10/22 01:49:40;;;;;;;7.40;1.30;;;;;;;8.93;61.47;98108.73;2254567;79;21020;-66
2021/10/22 01:52:41;;;;;;;3.42;0.70;;;;;;;8.82;62.53;98118.12;2256998;79;21030;-67
2021/10/22 01:55:41;;;;;;;5.35;1.15;;;;;;;8.72;62.46;98125.34;2213708;80;20980;-66
2021/10/22 01:58:42;;;;;;;3.08;0.90;;;;;;;8.59;63.04;98130.52;2254167;79;21543;-67
2021/10/22 02:01:43;;;;;;;2.45;0.78;;;;;;;8.49;62.68;98136.78;2217868;80;21008;-67
2021/10/22 02:04:43;;;;;;;10.90;1.07;;;;;;;8.43;62.17;98162.84;2241159;79;21078;-67
2021/10/22 02:07:44;;;;;;;6.08;0.90;;;;;;;8.42;61.33;98174.22;2254840;78;21285;-67
2021/10/22 02:10:44;;;;;;;2.62;0.70;;;;;;;8.35;61.07;98138.09;2215693;80;20975;-67
2021/10/22 02:13:44;;;;;;;10.38;1.72;;;;;;;8.28;61.00;98182.91;2245660;79;21494;-67
2021/10/22 02:16:45;;;;;;;7.97;1.02;;;;;;;8.20;61.45;98155.10;2216774;80;20980;-67
2021/10/22 02:19:46;;;;;;;6.80;1.10;;;;;;;8.11;61.80;98161.73;2202120;80;21073;-67
2021/10/22 02:22:46;;;;;;;10.60;1.75;;;;;;;7.97;62.05;98162.60;2253852;79;21015;-66
2021/10/22 02:25:47;;;;;;;3.27;1.12;;;;;;;7.86;62.05;98167.63;2216409;80;21001;-68
2021/10/22 02:28:47;;;;;;;4.05;0.70;;;;;;;7.76;62.37;98179.56;2249735;79;20977;-67
2021/10/22 02:31:48;;;;;;;5.05;1.00;;;;;;;7.69;62.29;98210.87;2215562;80;21510;-67
2021/10/22 02:34:48;;;;;;;11.18;1.30;;;;;;;7.68;61.95;98202.19;2258435;79;20981;-67
2021/10/22 02:37:49;;;;;;;8.40;1.70;;;;;;;7.62;61.97;98204.69;2215512;80;21048;-67
2021/10/22 02:40:49;;;;;;;10.68;1.65;;;;;;;7.58;61.61;98204.49;2253597;79;20980;-67
2021/10/22 02:43:50;;;;;;;4.25;0.80;;;;;;;7.54;61.01;98204.77;2215813;80;21484;-66
2021/10/22 02:46:50;;;;;;;11.63;1.85;;;;;;;7.48;60.88;98226.84;2254096;79;20958;-67
2021/10/22 02:49:51;;;;;;;8.95;1.37;;;;;;;7.45;60.99;98223.11;2213060;80;20999;-67
2021/10/22 02:52:51;;;;;;;8.45;1.40;;;;;;;7.40;60.65;98241.65;2250174;79;21067;-67
2021/10/22 02:55:52;;;;;;;10.55;1.75;;;;;;;7.36;59.89;98268.84;2217981;80;20984;-66
2021/10/22 02:58:52;;;;;;;10.95;1.67;;;;;;;7.36;59.67;98274.05;2257343;79;20984;-67
2021/10/22 03:01:53;;;;;;;8.75;1.40;;;;;;;7.31;59.18;98260.42;2216741;80;20973;-67
2021/10/22 03:04:53;;;;;;;8.53;1.57;;;;;;;7.27;58.58;98266.28;2249280;79;21475;-67
2021/10/22 03:07:54;;;;;;;12.10;1.75;;;;;;;7.23;58.06;98276.52;2216920;80;21012;-67
2021/10/22 03:10:54;;;;;;;9.75;1.50;;;;;;;7.15;58.39;98311.30;2254563;79;21349;-66
2021/10/22 03:13:55;;;;;;;10.48;1.30;;;;;;;7.13;58.57;98283.66;2214138;80;21039;-67
2021/10/22 03:16:56;;;;;;;13.13;1.90;;;;;;;7.03;58.97;98284.61;2248294;79;21012;-66
2021/10/22 03:19:56;;;;;;;9.20;1.55;;;;;;;6.88;59.64;98284.97;2216038;80;21047;-67
2021/10/22 03:22:57;;;;;;;15.68;1.82;;;;;;;6.78;60.01;98292.92;2252177;79;21487;-67
2021/10/22 03:25:57;;;;;;;12.35;1.57;;;;;;;6.69;60.32;98300.77;2217070;80;20980;-67
2021/10/22 03:28:57;;;;;;;18.82;1.87;;;;;;;6.66;60.78;98296.56;2238560;79;21025;-66
2021/10/22 03:31:58;;;;;;;18.95;2.40;;;;;;;6.69;60.61;98312.03;2217270;80;20988;-67
2021/10/22 03:34:59;;;;;;;12.95;1.90;;;;;;;6.62;61.30;98308.54;2250876;79;20993;-67
2021/10/22 03:37:59;;;;;;;13.00;1.57;;;;;;;6.56;61.65;98306.63;2258877;78;20958;-67
2021/10/22 03:41:00;;;;;;;15.68;2.60;;;;;;;6.49;61.77;98303.96;2215670;80;20981;-67
2021/10/22 03:44:01;;;;;;;14.68;2.30;;;;;;;6.43;62.33;98309.98;2245140;79;21052;-66
2021/10/22 03:47:01;;;;;;;14.98;2.02;;;;;;;6.32;62.80;98322.24;2216319;80;20976;-67
2021/10/22 03:50:02;;;;;;;13.60;2.00;;;;;;;6.31;62.83;98316.20;2258043;79;20961;-67
2021/10/22 03:53:03;;;;;;;13.62;2.08;;;;;;;6.29;63.24;98314.12;2259047;79;20968;-67
2021/10/22 03:56:04;;;;;;;15.70;2.12;;;;;;;6.27;63.33;98315.14;2263579;78;21124;-67
2021/10/22 03:59:05;;;;;;;11.43;1.90;;;;;;;6.30;63.24;98317.59;2217630;80;21011;-67
2021/10/22 04:02:05;;;;;;;9.70;1.82;;;;;;;6.24;63.36;98322.65;2258124;79;21019;-67
2021/10/22 04:05:07;;;;;;;13.45;2.55;;;;;;;6.23;63.41;98334.84;2217454;80;20973;-66
2021/10/22 04:08:08;;;;;;;10.43;1.72;;;;;;;6.27;63.31;98322.48;2253713;79;21051;-67
2021/10/22 04:11:08;;;;;;;12.55;1.62;;;;;;;6.23;63.31;98322.26;2214245;80;20980;-67
2021/10/22 04:14:09;;;;;;;13.55;1.87;;;;;;;6.26;63.51;98329.91;2253776;79;21020;-67
2021/10/22 04:17:10;;;;;;;16.87;2.33;;;;;;;6.23;63.77;98319.66;2217033;80;20973;-67
2021/10/22 04:20:10;;;;;;;15.43;2.35;;;;;;;6.18;63.96;98309.95;2239844;79;21025;-67
2021/10/22 04:23:11;;;;;;;12.78;1.80;;;;;;;6.10;64.42;98317.30;2218809;80;20984;-67
2021/10/22 04:26:12;;;;;;;13.45;1.90;;;;;;;6.01;64.77;98323.34;2253798;79;21044;-67
2021/10/22 04:29:13;;;;;;;13.58;2.27;;;;;;;5.97;64.92;98327.45;2218272;80;21000;-66
2021/10/22 04:32:13;;;;;;;13.68;2.12;;;;;;;5.88;65.33;98330.90;2257780;79;21031;-67
2021/10/22 04:35:14;;;;;;;17.45;2.58;;;;;;;5.80;65.79;98337.40;2218355;80;21303;-67
2021/10/22 04:41:17;;;;;;;13.28;2.08;;;;;;;5.78;65.97;98337.95;2195402;80;20988;-67
2021/10/22 04:44:17;;;;;;;14.25;2.35;;;;;;;5.73;66.05;98343.36;2239641;79;20982;-67
2021/10/22 04:47:17;;;;;;;18.98;2.10;;;;;;;5.75;66.49;98350.65;2218349;80;20981;-67
2021/10/22 04:50:18;;;;;;;16.23;2.52;;;;;;;5.70;66.74;98351.31;2247087;79;21015;-67
2021/10/22 04:53:18;;;;;;;18.37;2.75;;;;;;;5.66;66.78;98353.68;2217986;80;21495;-67
2021/10/22 04:56:19;;;;;;;13.80;2.40;;;;;;;5.66;66.88;98364.09;2253286;79;20976;-67
2021/10/22 04:59:20;;;;;;;18.62;2.35;;;;;;;5.64;66.65;98365.47;2216889;80;20981;-67
2021/10/22 05:02:21;;;;;;;15.80;2.02;;;;;;;5.59;66.87;98355.75;2257566;79;21048;-67
2021/10/22 05:05:21;;;;;;;13.20;2.55;;;;;;;5.54;66.66;98368.96;2217702;80;21467;-67
2021/10/22 05:08:22;;;;;;;13.80;2.35;;;;;;;5.54;66.49;98366.83;2257629;79;21071;-67
2021/10/22 05:11:22;;;;;;;20.88;3.15;;;;;;;5.57;66.36;98373.65;2258904;78;21023;-66
2021/10/22 05:14:23;;;;;;;14.55;2.02;;;;;;;5.54;66.17;98372.03;2215937;80;21004;-67
2021/10/22 05:17:23;;;;;;;13.25;1.82;;;;;;;5.50;66.40;98376.99;2253995;79;21020;-66
2021/10/22 05:20:24;;;;;;;18.65;2.83;;;;;;;5.48;66.37;98378.36;2250556;78;21024;-67
2021/10/22 05:23:25;;;;;;;21.02;3.42;;;;;;;5.43;66.58;98371.69;2218151;80;20960;-67
2021/10/22 05:26:25;;;;;;;15.98;3.00;;;;;;;5.41;66.64;98370.47;2248871;79;20972;-66
2021/10/22 05:29:26;;;;;;;18.95;3.60;;;;;;;5.41;66.57;98383.47;2217443;80;21047;-66
2021/10/22 05:32:26;;;;;;;17.00;3.10;;;;;;;5.43;66.30;98387.30;2248599;79;21484;-66
2021/10/22 05:35:26;;;;;;;14.10;2.25;;;;;;;5.38;66.52;98389.66;2217696;80;21475;-67
2021/10/22 05:38:28;;;;;;;13.43;2.22;;;;;;;5.38;66.46;98397.45;2250275;79;21424;-66
2021/10/22 05:41:29;;;;;;;16.30;2.90;;;;;;;5.41;66.34;98400.37;2261947;79;20961;-67
2021/10/22 05:44:29;;;;;;;12.37;2.42;;;;;;;5.41;66.07;98415.16;2215007;80;21211;-67
2021/10/22 05:47:30;;;;;;;22.02;3.20;;;;;;;5.45;65.89;98419.30;2257780;79;21004;-66
2021/10/22 05:50:31;;;;;;;15.98;2.37;;;;;;;5.47;65.62;98416.16;2216719;80;20992;-67
2021/10/22 05:53:32;;;;;;;10.90;2.10;;;;;;;5.50;65.43;98437.69;2253824;79;20980;-66
2021/10/22 05:56:33;;;;;;;14.30;2.35;;;;;;;5.56;65.16;98436.56;2219064;80;21039;-66
2021/10/22 05:59:33;;;;;;;17.80;3.02;;;;;;;5.60;65.23;98443.75;2248826;79;21023;-67
2021/10/22 06:02:34;;;;;;;15.45;2.60;;;;;;;5.60;65.11;98444.58;2217343;80;21554;-67
2021/10/22 06:05:34;;;;;;;16.23;2.70;;;;;;;5.59;65.22;98455.92;2253915;79;20996;-66
2021/10/22 06:08:35;;;;;;;15.80;2.50;;;;;;;5.65;65.01;98462.61;2218051;80;20988;-66
2021/10/22 06:11:35;;;;;;;16.70;2.72;;;;;;;5.70;65.00;98461.91;2247953;79;20952;-67
2021/10/22 06:14:35;;;;;;;17.25;2.95;;;;;;;5.76;64.81;98462.09;2215733;80;21015;-66
2021/10/22 06:17:36;;;;;;;15.50;2.70;;;;;;;5.82;64.41;98453.98;2249468;79;21080;-66
2021/10/22 06:26:42;;;;;;;21.37;2.87;;;;;;;6.07;63.50;98462.80;2196131;80;21522;-66
2021/10/22 06:29:43;;;;;;;20.57;3.40;;;;;;;6.14;63.40;98481.59;2249380;79;21412;-67
2021/10/22 06:32:43;;;;;;;19.67;3.17;;;;;;;6.22;63.28;98482.03;2213638;80;20953;-66
2021/10/22 06:35:45;;;;;;;15.23;2.87;;;;;;;6.31;63.23;98473.79;2253536;79;21011;-66
2021/10/22 06:38:45;;;;;;;20.57;3.70;;;;;;;6.40;62.56;98481.14;2217573;80;21011;-66
2021/10/22 06:41:46;;;;;;;19.73;3.75;;;;;;;6.52;62.76;98471.03;2257745;79;21027;-66
2021/10/22 06:44:46;;;;;;;17.30;3.10;;;;;;;6.59;62.29;98478.48;2217512;80;21048;-66
2021/10/22 06:47:48;;;;;;;19.25;3.25;;;;;;;6.70;61.75;98477.09;2256211;79;20969;-66
2021/10/22 06:50:48;;;;;;;14.95;3.05;;;;;;;6.79;60.88;98479.69;2244594;78;21029;-66
2021/10/22 06:53:49;;;;;;;21.68;3.60;;;;;;;6.82;60.89;98484.27;2215961;80;21474;-66
2021/10/22 06:56:49;;;;;;;18.20;3.20;;;;;;;6.89;61.03;98478.30;2263193;79;21031;-66
2021/10/22 06:59:49;;;;;;;20.80;3.70;;;;;;;6.96;60.59;98490.09;2216103;80;21060;-67
2021/10/22 07:02:50;;;;;;;20.08;3.47;;;;;;;6.99;61.14;98494.31;2257330;79;20973;-66
2021/10/22 07:06:03;;;;;;;22.27;3.40;;;;;;;7.07;61.13;98485.16;2218471;80;21075;-67
2021/10/22 07:08:53;;;;;;;20.05;3.70;;;;;;;7.16;60.20;98490.36;2227779;79;20984;-66
2021/10/22 07:11:53;;;;;;;17.32;3.15;;;;;;;7.16;60.20;98485.61;2218907;80;21055;-66
2021/10/22 07:14:57;;;;;;;20.75;3.37;;;;;;;7.19;61.21;98498.49;2257562;79;20949;-66
2021/10/22 07:17:59;;;;;;;18.10;2.67;;;;;;;7.28;60.85;98508.43;2192692;80;21004;-66
2021/10/22 07:20:59;;;;;;;16.82;3.02;;;;;;;7.36;59.68;98512.79;2226231;79;21464;-66
2021/10/22 07:24:05;;;;;;;16.02;3.00;;;;;;;7.40;59.40;98526.06;2217710;80;21051;-66
2021/10/22 07:27:02;;;;;;;18.12;3.37;;;;;;;7.49;58.95;98532.56;2222764;79;21033;-66
2021/10/22 07:30:02;;;;;;;14.47;2.58;;;;;;;7.56;58.30;98537.83;2214960;80;21087;-67
2021/10/22 07:33:02;;;;;;;18.25;3.58;;;;;;;7.64;58.34;98528.27;2243577;79;20957;-66
2021/10/22 07:36:05;;;;;;;22.13;3.62;;;;;;;7.71;58.20;98554.91;2213876;80;21020;-66
2021/10/22 07:39:05;;;;;;;17.67;3.40;;;;;;;7.75;58.24;98540.77;2226830;79;20998;-66
2021/10/22 07:42:06;;;;;;;16.82;2.92;;;;;;;7.82;58.43;98535.59;2217399;80;21020;-66
2021/10/22 07:45:07;;;;;;;14.20;2.75;;;;;;;7.91;57.46;98528.55;2252625;79;21478;-66
2021/10/22 07:48:07;;;;;;;15.20;2.70;;;;;;;8.05;56.25;98538.72;2217430;80;20972;-66
2021/10/22 07:51:08;;;;;;;16.35;2.05;;;;;;;8.05;55.85;98538.25;2244751;79;20973;-66
2021/10/22 07:54:08;;;;;;;15.80;2.75;;;;;;;8.05;54.83;98529.10;2215788;80;21012;-66
2021/10/22 07:57:08;;;;;;;21.70;3.00;;;;;;;8.14;55.66;98542.95;2245926;79;21024;-66
2021/10/22 08:00:09;;;;;;;16.45;2.47;;;;;;;8.28;54.67;98544.80;2255503;79;21009;-66
2021/10/22 08:03:10;;;;;;;17.23;3.30;;;;;;;8.42;54.76;98552.31;2215710;80;20956;-66
2021/10/22 08:06:13;;;;;;;16.35;2.90;;;;;;;8.54;55.74;98555.59;2257566;79;20960;-66
2021/10/22 08:09:13;;;;;;;14.28;2.98;;;;;;;8.62;54.50;98553.83;2192273;80;20996;-66
2021/10/22 08:12:13;;;;;;;18.95;3.60;;;;;;;8.75;54.53;98545.67;2246903;79;20988;-66
2021/10/22 08:15:14;;;;;;;17.82;2.98;;;;;;;8.87;55.28;98555.88;2215970;80;21104;-66
2021/10/22 08:18:14;;;;;;;21.30;3.33;;;;;;;8.97;54.09;98549.17;2257583;79;20976;-66
2021/10/22 08:24:17;;;;;;;18.85;2.85;;;;;;;8.97;53.15;98554.41;2227439;79;20953;-66
2021/10/22 08:27:18;;;;;;;17.30;2.60;;;;;;;9.01;54.26;98561.15;2214539;80;20981;-66
2021/10/22 08:30:20;;;;;;;19.98;2.83;;;;;;;9.11;52.99;98564.55;2253555;79;21024;-66
2021/10/22 08:33:21;;;;;;;17.55;2.42;;;;;;;9.04;53.03;98569.73;2216172;80;20973;-66
2021/10/22 08:36:22;;;;;;;18.67;2.77;;;;;;;8.94;53.04;98546.75;2257510;79;21068;-66
2021/10/22 08:39:22;;;;;;;21.75;3.00;;;;;;;9.14;52.89;98558.65;2262935;78;21015;-66
2021/10/22 08:42:23;;;;;;;18.12;2.75;;;;;;;9.34;53.22;98551.39;2213360;80;21012;-66
2021/10/22 08:45:24;;;;;;;13.95;2.22;;;;;;;9.42;52.06;98557.47;2258695;79;21004;-66
2021/10/22 08:48:24;;;;;;;9.38;2.40;;;;;;;9.39;51.99;98555.87;2216041;80;21047;-66
2021/10/22 08:51:25;;;;;;;15.10;2.33;;;;;;;9.51;52.06;98586.55;2248713;79;21511;-65
2021/10/22 08:54:25;;;;;;;14.90;2.92;;;;;;;9.35;50.88;98594.48;2258806;78;21066;-66
2021/10/22 08:57:26;;;;;;;15.15;2.40;;;;;;;9.26;50.55;98612.03;2217166;80;21023;-66
2021/10/22 09:00:26;;;;;;;13.90;2.47;;;;;;;9.32;51.49;98576.35;2249885;79;20965;-66
2021/10/22 09:03:27;;;;;;;14.50;2.55;;;;;;;9.49;50.70;98567.94;2215620;80;21027;-66
2021/10/22 09:06:27;;;;;;;20.12;2.92;;;;;;;9.60;50.46;98583.02;2244613;79;22032;-66
2021/10/22 09:09:28;;;;;;;14.83;3.02;;;;;;;9.72;49.54;98567.84;2216088;80;21012;-67
2021/10/22 09:12:28;;;;;;;15.50;2.62;;;;;;;9.78;50.63;98551.73;2249988;79;20992;-66
2021/10/22 09:15:29;;;;;;;10.38;2.22;;;;;;;9.98;49.11;98560.97;2215627;80;21030;-66
2021/10/22 09:18:29;;;;;;;15.23;2.50;;;;;;;9.92;48.08;98577.08;2253158;79;21024;-66
2021/10/22 09:21:30;;;;;;;12.37;2.27;;;;;;;9.93;50.06;98540.78;2216361;80;20996;-68
2021/10/22 09:24:31;;;;;;;16.45;2.85;;;;;;;9.90;47.40;98580.28;2251667;79;20941;-66
2021/10/22 09:27:31;;;;;;;21.75;3.42;;;;;;;9.99;48.81;98553.48;2217511;80;21503;-66
2021/10/22 09:30:32;;;;;;;13.88;2.52;;;;;;;10.08;47.94;98570.41;2242489;79;20965;-66
2021/10/22 09:33:32;;;;;;;14.33;2.12;;;;;;;10.03;46.56;98574.64;2250541;78;21479;-66
2021/10/22 09:36:33;;;;;;;15.20;2.33;;;;;;;10.05;46.12;98579.78;2214519;80;20985;-66
2021/10/22 09:39:33;;;;;;;11.57;1.95;;;;;;;10.26;47.86;98559.24;2254012;79;21033;-67
2021/10/22 09:42:36;;;;;;;13.22;2.10;;;;;;;10.43;45.24;98566.06;2240426;79;20997;-66
2021/10/22 09:45:36;;;;;;;17.32;2.50;;;;;;;10.51;45.53;98541.95;2213860;79;21581;-66
2021/10/22 09:48:37;;;;;;;16.48;2.65;;;;;;;10.57;46.06;98583.05;2244363;79;20996;-65
2021/10/22 09:51:38;;;;;;;12.45;2.42;;;;;;;10.60;45.83;98558.87;2254754;78;20984;-66
2021/10/22 09:54:39;;;;;;;13.48;2.30;;;;;;;10.73;44.74;98548.79;2216756;80;20987;-66
2021/10/22 09:57:40;;;;;;;13.83;2.22;;;;;;;10.83;44.71;98546.86;2245604;79;21521;-66
2021/10/22 10:00:40;;;;;;;15.08;2.35;;;;;;;10.89;44.40;98547.30;2215398;80;20949;-66
2021/10/22 10:03:41;;;;;;;20.55;2.40;;;;;;;10.99;43.67;98544.05;2253883;79;20958;-66
2021/10/22 10:06:43;;;;;;;11.60;2.08;;;;;;;10.98;43.12;98540.59;2254800;78;20949;-66
2021/10/22 10:09:44;;;;;;;14.87;2.40;;;;;;;11.00;43.29;98549.67;2222804;79;21522;-66
2021/10/22 10:12:46;;;;;;;13.15;2.25;;;;;;;11.00;42.59;98552.30;2252460;79;21071;-66
2021/10/22 10:15:46;;;;;;;15.13;2.65;;;;;;;11.05;42.37;98569.41;2259487;78;21060;-66
2021/10/22 10:18:47;;;;;;;13.83;2.20;;;;;;;11.15;43.48;98549.09;2216398;80;21439;-66
2021/10/22 10:21:47;;;;;;;16.42;2.87;;;;;;;11.33;42.60;98526.02;2245520;79;20953;-66
2021/10/22 10:24:48;;;;;;;12.05;2.55;;;;;;;11.59;42.86;98541.27;2216863;80;20944;-66
2021/10/22 10:27:48;;;;;;;15.75;2.42;;;;;;;11.78;42.59;98540.36;2248542;79;21013;-66
2021/10/22 10:30:48;;;;;;;12.75;2.20;;;;;;;12.18;41.60;98525.34;2250382;79;20992;-66
2021/10/22 10:33:49;;;;;;;13.58;2.40;;;;;;;12.42;42.40;98502.98;2218832;80;21015;-66
2021/10/22 10:36:50;;;;;;;15.00;2.17;;;;;;;12.67;39.59;98525.70;2244136;79;21005;-66
2021/10/22 10:39:50;;;;;;;12.43;2.27;;;;;;;12.58;40.45;98502.69;2251122;78;20986;-66
2021/10/22 10:42:51;;;;;;;13.72;1.92;;;;;;;12.33;40.21;98506.31;2217932;80;21045;-66
2021/10/22 10:45:52;;;;;;;12.82;1.92;;;;;;;12.38;42.20;98497.59;2261975;79;20980;-67
2021/10/22 10:48:52;;;;;;;8.48;1.98;;;;;;;12.56;40.38;98463.83;2216109;80;21032;-66
2021/10/22 10:51:52;;;;;;;12.63;2.12;;;;;;;12.62;40.99;98483.92;2253991;79;20965;-65
2021/10/22 10:54:53;;;;;;;10.28;2.17;;;;;;;12.52;40.43;98490.83;2250064;79;20976;-66
2021/10/22 10:57:53;;;;;;;14.50;2.30;;;;;;;12.53;39.44;98483.31;2213884;80;21106;-65
2021/10/22 11:00:54;;;;;;;18.23;2.50;;;;;;;12.25;41.43;98470.04;2253265;79;21019;-65
2021/10/22 11:03:55;;;;;;;13.78;2.27;;;;;;;11.91;41.05;98467.20;2216926;80;21557;-66
2021/10/22 11:06:56;;;;;;;12.98;2.30;;;;;;;11.47;41.37;98481.73;2258699;79;20988;-65
2021/10/22 11:09:59;;;;;;;18.53;2.63;;;;;;;11.23;41.01;98463.65;2218214;80;21027;-66
2021/10/22 11:12:59;;;;;;;10.08;1.70;;;;;;;11.03;41.25;98496.97;2227006;79;21045;-66
2021/10/22 11:16:00;;;;;;;13.28;2.22;;;;;;;10.71;41.93;98492.95;2214872;80;21019;-66
2021/10/22 11:19:01;;;;;;;13.65;2.12;;;;;;;10.56;42.57;98463.35;2253089;79;21527;-66
2021/10/22 11:22:02;;;;;;;14.23;2.80;;;;;;;10.52;42.13;98469.73;2217002;80;21114;-66
2021/10/22 11:25:02;;;;;;;13.50;2.35;;;;;;;10.48;43.26;98474.81;2261467;79;21000;-66
2021/10/22 11:28:09;;;;;;;17.10;2.62;;;;;;;10.41;41.92;98464.36;2215697;80;21043;-67
2021/10/22 11:31:05;;;;;;;18.12;3.65;;;;;;;10.45;43.20;98467.64;2225031;79;21029;-66
2021/10/22 11:34:06;;;;;;;16.97;2.52;;;;;;;10.42;43.64;98463.91;2216395;80;21052;-66
2021/10/22 11:37:08;;;;;;;13.60;2.45;;;;;;;10.35;43.16;98461.67;2253546;79;20981;-66
2021/10/22 11:43:13;;;;;;;12.65;2.00;;;;;;;10.87;42.80;98467.83;2227046;79;21005;-67
2021/10/22 11:46:13;;;;;;;9.90;1.92;;;;;;;11.06;42.63;98450.38;2257572;79;21035;-66
2021/10/22 11:49:14;;;;;;;10.30;2.30;;;;;;;11.34;42.75;98455.02;2218354;80;20995;-66
2021/10/22 11:52:14;;;;;;;13.38;2.40;;;;;;;11.76;41.73;98440.25;2262368;79;21019;-66
2021/10/22 11:55:15;;;;;;;10.53;1.85;;;;;;;11.89;41.05;98449.40;2217373;80;21016;-67
2021/10/22 11:58:18;;;;;;;16.77;2.33;;;;;;;11.93;39.75;98453.48;2253992;79;21500;-66
2021/10/22 12:01:18;;;;;;;17.87;3.83;;;;;;;12.02;40.49;98464.66;2188709;80;21000;-66
2021/10/22 12:04:19;;;;;;;15.53;2.80;;;;;;;12.09;39.52;98450.12;2249581;79;21542;-66
2021/10/22 12:07:19;;;;;;;14.68;2.27;;;;;;;12.30;41.15;98417.47;2219351;80;20996;-66
2021/10/22 12:10:20;;;;;;;11.05;2.22;;;;;;;12.26;40.82;98417.34;2249603;79;20989;-66
2021/10/22 12:13:20;;;;;;;16.32;2.98;;;;;;;12.17;40.05;98443.01;2215180;80;21044;-66
2021/10/22 12:16:21;;;;;;;14.90;2.80;;;;;;;12.27;40.60;98429.54;2253579;79;20984;-66
2021/10/22 12:19:21;;;;;;;14.80;2.30;;;;;;;12.46;40.02;98425.05;2213585;80;20984;-66
2021/10/22 12:22:22;;;;;;;15.20;2.52;;;;;;;12.47;39.08;98441.20;2257810;79;21053;-66
2021/10/22 12:25:23;;;;;;;13.32;2.30;;;;;;;12.16;40.36;98462.84;2216642;80;21004;-66
2021/10/22 12:28:25;;;;;;;12.40;2.17;;;;;;;11.85;39.93;98434.80;2253221;79;21004;-66
2021/10/22 12:31:25;;;;;;;14.73;2.90;;;;;;;11.98;40.51;98419.02;2190872;80;21502;-66
2021/10/22 12:34:26;;;;;;;12.90;2.02;;;;;;;11.96;40.03;98438.84;2249147;79;20989;-66
2021/10/22 12:37:26;;;;;;;11.93;2.00;;;;;;;11.91;39.79;98438.28;2259271;78;20981;-66
2021/10/22 12:40:27;;;;;;;11.20;2.55;;;;;;;11.91;41.71;98412.87;2217040;80;20953;-66
2021/10/22 12:43:27;;;;;;;10.23;1.77;;;;;;;12.04;40.72;98381.30;2254796;79;20984;-66
2021/10/22 12:46:28;;;;;;;11.45;1.87;;;;;;;11.90;38.64;98423.01;2217003;80;21645;-66
2021/10/22 12:49:29;;;;;;;14.18;2.35;;;;;;;11.95;40.54;98401.67;2263190;79;21482;-66
2021/10/22 12:52:29;;;;;;;12.73;2.40;;;;;;;11.94;38.60;98431.06;2218111;80;20937;-66
2021/10/22 12:55:30;;;;;;;13.70;2.33;;;;;;;11.96;38.74;98415.19;2262893;79;20973;-66
2021/10/22 12:58:31;;;;;;;13.70;2.95;;;;;;;11.92;37.82;98404.50;2216455;80;20956;-66
2021/10/22 13:01:32;;;;;;;19.32;2.98;;;;;;;11.95;38.04;98428.81;2254464;79;20996;-66
2021/10/22 13:04:33;;;;;;;12.37;2.00;;;;;;;12.11;38.35;98412.75;2217557;80;21039;-66
2021/10/22 13:07:44;;;;;;;13.93;2.90;;;;;;;12.12;37.27;98401.29;2250562;79;20968;-66
2021/10/22 13:13:53;;;;;;;9.65;2.10;;;;;;;11.97;37.99;98401.09;2222169;79;21559;-66
2021/10/22 13:22:45;;;;;;;11.00;2.40;;;;;;;11.99;36.70;98408.38;2185286;80;20117;-66
2021/10/22 13:25:45;;;;;;;13.85;2.60;;;;;;;12.01;37.96;98399.92;2255482;79;20957;-66
2021/10/22 13:28:47;;;;;;;11.35;2.15;;;;;;;12.09;37.22;98405.92;2215556;80;21526;-66
2021/10/22 13:31:50;;;;;;;11.78;2.72;;;;;;;12.06;36.79;98389.06;2253040;79;21016;-66
2021/10/22 13:34:51;;;;;;;10.72;2.30;;;;;;;12.03;36.50;98384.87;2189523;80;21466;-66
2021/10/22 13:37:51;;;;;;;13.30;2.27;;;;;;;12.04;37.49;98373.87;2254725;79;21012;-66
2021/10/22 13:40:52;;;;;;;10.00;2.35;;;;;;;12.06;38.08;98359.66;2216310;80;21000;-66
2021/10/22 13:43:52;;;;;;;11.83;2.60;;;;;;;12.09;37.47;98363.86;2258937;79;21479;-66
2021/10/22 13:46:53;;;;;;;13.90;2.20;;;;;;;12.02;37.36;98366.09;2214854;80;21080;-66
2021/10/22 13:49:55;;;;;;;16.20;2.55;;;;;;;12.03;38.87;98382.23;2257028;79;21016;-66
2021/10/22 13:52:56;;;;;;;15.00;3.22;;;;;;;11.74;38.72;98381.25;2217806;80;20984;-66
2021/10/22 13:55:57;;;;;;;15.93;3.08;;;;;;;11.50;40.03;98386.48;2248881;79;20981;-66
2021/10/22 13:58:57;;;;;;;14.30;3.30;;;;;;;11.31;39.55;98388.77;2217412;80;21490;-66
2021/10/22 14:01:58;;;;;;;13.38;2.62;;;;;;;11.27;39.82;98389.44;2252565;79;20988;-66
2021/10/22 14:04:58;;;;;;;12.45;2.90;;;;;;;11.09;40.48;98387.63;2216558;80;21028;-66
2021/10/22 14:07:59;;;;;;;16.10;2.90;;;;;;;10.90;40.62;98395.94;2261234;79;20968;-66
2021/10/22 14:11:04;;;;;;;13.28;2.80;;;;;;;10.88;41.80;98360.63;2217843;80;21035;-66
2021/10/22 14:17:19;;;;;;;16.12;2.40;;;;;;;11.11;41.10;98375.73;2192479;80;21533;-66
2021/10/22 14:29:13;;;;;;;15.60;2.77;;;;;;;11.32;40.15;98378.60;2191358;80;21550;-66
2021/10/22 14:32:14;;;;;;;15.70;3.12;;;;;;;11.20;40.18;98396.89;2257652;79;21090;-66
2021/10/22 14:35:14;;;;;;;12.90;2.58;;;;;;;11.03;41.97;98374.94;2215925;80;21000;-66
2021/10/22 14:38:15;;;;;;;15.32;2.77;;;;;;;10.87;42.01;98371.23;2249251;79;21121;-66
2021/10/22 14:41:15;;;;;;;14.73;3.00;;;;;;;10.65;41.98;98391.08;2214544;80;21542;-66
2021/10/22 14:44:20;;;;;;;11.95;2.02;;;;;;;10.54;43.01;98389.20;2249289;79;20980;-66